New Champion — V7GG2 — position and weather

sailwx.info

Track history (hours):
 
Tides and Currents Weather Stations Pressure Air Temp Water Temp Dewpoint Dewpoint Depression Visibility Wind Speed Wind Dir Waves Ship Positions

New Champion

Last reported at 2014-Dec-17 15:05 UTC. Time now 2014-Dec-21 20:10 UTC.
Position N 08°25' W 015°06'.

Length 228 m; draft 11.4 m.

Type: Ship (hazmat cat A). MMSI: 537985031.

Date/timePositionNaut miles runAvg speedWind from/ knotsBaromVisibWave heightAir tempDewpointWater temp
2014-Dec-17 15:05N 08°25' W 015°06'  
2014-Dec-08 21:23N 50°26' W 000°24'2412.8
2014-Dec-08 19:32N 50°32' E 000°12'1414.7
2014-Dec-08 18:33N 50°36' E 000°34'1615.5
2014-Dec-08 17:33N 50°46' E 000°53'1615.0
2014-Dec-08 16:31N 50°56' E 001°12'1313.8
2014-Dec-08 15:33N 51°05' E 001°28'1212.0
2014-Dec-08 14:33N 51°12' E 001°43'1211.6
2014-Dec-08 13:33N 51°22' E 001°52'1313.0
2014-Dec-08 12:33N 51°32' E 002°06'1414.2
2014-Dec-08 11:33N 51°43' E 002°20'  
Track history (hours):
 
Tides and Currents Weather Stations Pressure Air Temp Water Temp Dewpoint Dewpoint Depression Visibility Wind Speed Wind Dir Waves Ship Positions

New Champion

Last reported at 2014-Dec-17 15:05 UTC. Time now 2014-Dec-21 20:10 UTC.
Position N 08°25' W 015°06'.

Length 228 m; draft 11.4 m.

Type: Ship (hazmat cat A). MMSI: 537985031.

Date/timePositionNaut miles runAvg speedWind from/ knotsBaromVisibWave heightAir tempDewpointWater temp
2014-Dec-17 15:05N 08°25' W 015°06'  
2014-Dec-08 21:23N 50°26' W 000°24'2412.8
2014-Dec-08 19:32N 50°32' E 000°12'1414.7
2014-Dec-08 18:33N 50°36' E 000°34'1615.5
2014-Dec-08 17:33N 50°46' E 000°53'1615.0
2014-Dec-08 16:31N 50°56' E 001°12'1313.8
2014-Dec-08 15:33N 51°05' E 001°28'1212.0
2014-Dec-08 14:33N 51°12' E 001°43'1211.6
2014-Dec-08 13:33N 51°22' E 001°52'1313.0
2014-Dec-08 12:33N 51°32' E 002°06'1414.2
2014-Dec-08 11:33N 51°43' E 002°20'  

Dump ship's entire track history